logo
Rechercher aéroport 
image banner adimage banner adimage banner ad
image banner ad

KCLR - Cliff Hatfield Memorial

Situé à Calipatria, United States

ICAO - CLR, IATA - CLR

Données fournies par Airmate  

Information générale

Coordonnées: N33°7'53" W115°31'17"
Élévation : -181 feet MSL.
Variation magnétique : 13° East
Voir autres Aéroports à California

Données opérationnelles

Special qualification required
Heure actuelle UTC:
Heure actuelle locale:
Météo à : KIPL - Imperial County ( 33 km )
METAR: KIPL 281153Z AUTO 00000KT 10SM CLR 28/14 A2981 RMK AO2 SLP095 T02780139 10311 20267 53005
TAF: KIPL 280520Z 2806/2906 12005KT P6SM FEW120
Voir NOTAMs / SUP AIP / TFR affectant cet aéroport [VIEW]
Fréquences de communication: [VIEW]

Pistes:

Identifiant RWYQFULongueur (ft)Largeur (ft)SurfaceLDA (ft)
0891°342350ASPH
26271°342350ASPH

Coordonnées de l'aéroport

Adresse: Calipatria United States

Vue satellite de KCLR